createdAt,value
2019-03-31T00:01:46.712Z,19.98
2019-03-31T00:04:13.633Z,19.98
2019-03-31T00:06:40.564Z,19.97
2019-03-31T00:09:07.512Z,19.97
2019-03-31T00:11:34.416Z,19.98
2019-03-31T00:14:01.417Z,19.98
2019-03-31T00:16:28.332Z,19.98
2019-03-31T00:18:55.557Z,19.98
2019-03-31T00:21:22.491Z,19.99
2019-03-31T00:23:49.424Z,19.99
2019-03-31T00:26:16.556Z,19.99
2019-03-31T00:28:43.488Z,19.97
2019-03-31T00:31:21.492Z,19.98
2019-03-31T00:33:38.992Z,19.99
2019-03-31T00:36:05.908Z,19.98
2019-03-31T00:38:32.868Z,19.99
2019-03-31T00:40:59.800Z,19.99
2019-03-31T00:43:26.801Z,19.99
2019-03-31T00:45:53.772Z,19.99
2019-03-31T00:48:20.686Z,19.99
2019-03-31T00:50:47.617Z,19.99
2019-03-31T00:53:14.549Z,19.99
2019-03-31T00:55:41.582Z,19.98
2019-03-31T00:58:08.560Z,19.98
2019-03-31T01:00:46.200Z,19.99
2019-03-31T01:03:13.391Z,19.99
2019-03-31T01:05:40.531Z,19.99
2019-03-31T01:08:10.166Z,20.00
2019-03-31T01:10:37.087Z,19.99
2019-03-31T01:13:04.014Z,20.00
2019-03-31T01:15:30.983Z,20.00
2019-03-31T01:17:57.942Z,20.00
2019-03-31T01:20:24.854Z,20.00
2019-03-31T01:22:51.863Z,20.00
2019-03-31T01:25:19.060Z,20.00
2019-03-31T01:27:45.984Z,19.99
2019-03-31T01:30:13.520Z,20.00
2019-03-31T01:32:40.567Z,19.99
2019-03-31T01:35:08.367Z,19.99
2019-03-31T01:37:35.566Z,20.00
2019-03-31T01:40:02.695Z,20.00
2019-03-31T01:42:29.636Z,20.00
2019-03-31T01:44:56.566Z,20.00
2019-03-31T01:47:23.559Z,20.00
2019-03-31T01:49:50.508Z,20.00
2019-03-31T01:52:17.467Z,20.00
2019-03-31T01:54:44.404Z,20.00
2019-03-31T01:57:11.329Z,20.00
2019-03-31T01:59:38.256Z,20.00
2019-03-31T02:02:06.268Z,20.00
2019-03-31T02:04:33.189Z,19.99
2019-03-31T02:07:00.145Z,20.00
2019-03-31T02:09:27.047Z,20.00
2019-03-31T02:11:53.980Z,20.00
2019-03-31T02:14:20.879Z,20.00
2019-03-31T02:16:47.836Z,20.00
2019-03-31T02:19:14.824Z,20.01
2019-03-31T02:21:41.753Z,20.01
2019-03-31T02:24:08.700Z,20.00
2019-03-31T02:26:35.618Z,20.00
2019-03-31T02:29:02.532Z,20.01
2019-03-31T02:31:29.476Z,20.00
2019-03-31T02:33:56.389Z,20.00
2019-03-31T02:36:23.325Z,20.01
2019-03-31T02:38:50.272Z,20.01
2019-03-31T02:41:17.290Z,20.01
2019-03-31T02:43:44.341Z,20.01
2019-03-31T02:46:11.276Z,20.01
2019-03-31T02:48:38.282Z,20.01
2019-03-31T02:51:05.210Z,20.02
2019-03-31T02:53:32.120Z,20.01
2019-03-31T02:55:59.109Z,20.01
2019-03-31T02:58:26.053Z,20.03
2019-03-31T03:00:52.979Z,20.02
2019-03-31T03:03:19.932Z,20.02
2019-03-31T03:05:46.869Z,20.02
2019-03-31T03:08:13.906Z,20.02
2019-03-31T03:10:40.837Z,20.02
2019-03-31T03:13:07.802Z,20.03
2019-03-31T03:15:34.771Z,20.02
2019-03-31T03:18:01.684Z,20.02
2019-03-31T03:20:28.660Z,20.03
2019-03-31T03:22:55.617Z,20.03
2019-03-31T03:25:22.491Z,20.02
2019-03-31T03:27:49.439Z,20.03
2019-03-31T03:30:16.433Z,20.04
2019-03-31T03:33:12.147Z,20.03
2019-03-31T03:35:11.949Z,20.03
2019-03-31T03:37:38.926Z,20.03
2019-03-31T03:40:05.864Z,20.03
2019-03-31T03:42:32.761Z,20.03
2019-03-31T03:44:59.711Z,20.02
2019-03-31T03:47:26.648Z,20.03
2019-03-31T03:49:53.598Z,20.03
2019-03-31T03:52:20.597Z,20.03
2019-03-31T03:54:47.584Z,20.03
2019-03-31T03:57:14.461Z,20.04
2019-03-31T03:59:41.367Z,20.04
2019-03-31T04:02:08.326Z,20.03
2019-03-31T04:04:35.262Z,20.03
2019-03-31T04:07:02.226Z,20.03
2019-03-31T04:09:29.150Z,20.02
2019-03-31T04:11:56.066Z,20.03
2019-03-31T04:14:23.115Z,20.03
2019-03-31T04:16:50.012Z,20.03
2019-03-31T04:19:16.962Z,20.02
2019-03-31T04:21:43.908Z,20.03
2019-03-31T04:24:10.835Z,20.03
2019-03-31T04:26:37.748Z,20.03
2019-03-31T04:29:04.807Z,20.03
2019-03-31T04:31:32.737Z,20.03
2019-03-31T04:33:59.705Z,20.03
2019-03-31T04:36:26.651Z,20.03
2019-03-31T04:38:53.620Z,20.03
2019-03-31T04:41:20.542Z,20.04
2019-03-31T04:43:47.593Z,20.04
2019-03-31T04:46:14.539Z,20.04
2019-03-31T04:48:41.490Z,20.03
2019-03-31T04:51:08.442Z,20.04
2019-03-31T04:53:35.372Z,20.04
2019-03-31T04:56:02.286Z,20.04
2019-03-31T04:58:29.225Z,20.04
2019-03-31T05:00:56.146Z,20.04
2019-03-31T05:03:23.191Z,20.04
2019-03-31T05:05:50.143Z,20.04
2019-03-31T05:08:17.046Z,20.04
2019-03-31T05:10:44.097Z,20.04
2019-03-31T05:13:11.013Z,20.04
2019-03-31T05:15:37.933Z,20.04
2019-03-31T05:18:04.851Z,20.04
2019-03-31T05:20:31.772Z,20.04
2019-03-31T05:22:58.721Z,20.03
2019-03-31T05:25:25.635Z,20.05
2019-03-31T05:27:52.576Z,20.05
2019-03-31T05:30:19.496Z,20.05
2019-03-31T05:32:46.406Z,20.04
2019-03-31T05:35:13.324Z,20.04
2019-03-31T05:37:50.845Z,20.04
2019-03-31T05:40:08.835Z,20.03
2019-03-31T05:42:35.738Z,20.03
2019-03-31T05:45:02.677Z,20.03
2019-03-31T05:47:29.583Z,20.04
2019-03-31T05:49:56.483Z,20.03
2019-03-31T05:52:23.490Z,20.04
2019-03-31T05:54:50.400Z,20.03
2019-03-31T05:57:17.311Z,20.04
2019-03-31T05:59:44.240Z,20.05
2019-03-31T06:02:11.273Z,20.04
2019-03-31T06:04:38.312Z,20.04
2019-03-31T06:07:05.233Z,20.03
2019-03-31T06:09:32.162Z,20.04
2019-03-31T06:11:59.075Z,20.05
2019-03-31T06:14:26.031Z,20.04
2019-03-31T06:16:52.992Z,20.04
2019-03-31T06:19:19.916Z,20.05
2019-03-31T06:21:46.810Z,20.04
2019-03-31T06:24:13.746Z,20.04
2019-03-31T06:26:40.678Z,20.03
2019-03-31T06:29:07.654Z,20.03
2019-03-31T06:31:34.574Z,20.05
2019-03-31T06:34:01.485Z,20.05
2019-03-31T06:36:28.405Z,20.04
2019-03-31T06:38:55.316Z,20.04
2019-03-31T06:41:22.304Z,20.05
2019-03-31T06:43:50.323Z,19.21
2019-03-31T06:46:17.364Z,20.04
2019-03-31T06:48:44.345Z,20.06
2019-03-31T06:51:11.474Z,20.04
2019-03-31T06:53:39.397Z,20.06
2019-03-31T06:56:07.288Z,20.04
2019-03-31T06:58:34.270Z,20.05
2019-03-31T07:01:01.143Z,20.04
2019-03-31T07:03:28.184Z,20.03
2019-03-31T07:05:55.134Z,20.04
2019-03-31T07:08:22.054Z,20.04
2019-03-31T07:10:49.020Z,20.04
2019-03-31T07:13:15.960Z,20.04
2019-03-31T07:15:42.881Z,20.04
2019-03-31T07:18:09.903Z,20.05
2019-03-31T07:20:36.815Z,20.04
2019-03-31T07:23:03.828Z,20.04
2019-03-31T07:25:30.849Z,20.04
2019-03-31T07:27:57.753Z,20.04
2019-03-31T07:30:24.752Z,20.05
2019-03-31T07:32:51.999Z,20.04
2019-03-31T07:35:19.321Z,20.06
2019-03-31T07:37:47.391Z,20.06
2019-03-31T07:40:14.795Z,20.05
2019-03-31T07:42:41.889Z,20.06
2019-03-31T07:45:08.798Z,20.06
2019-03-31T07:47:39.721Z,20.06
2019-03-31T07:50:07.588Z,20.06
2019-03-31T07:52:34.585Z,20.06
2019-03-31T07:55:01.686Z,20.06
2019-03-31T07:57:28.608Z,20.05
2019-03-31T07:59:56.714Z,20.06
2019-03-31T08:02:23.984Z,20.06
2019-03-31T08:04:50.997Z,20.06
2019-03-31T08:07:17.931Z,20.06
2019-03-31T08:09:44.842Z,20.06
2019-03-31T08:12:11.797Z,20.07
2019-03-31T08:14:38.712Z,20.08
2019-03-31T08:17:05.641Z,20.08
2019-03-31T08:19:32.598Z,20.08
2019-03-31T08:21:59.619Z,20.08
2019-03-31T08:24:26.527Z,20.08
2019-03-31T08:26:53.459Z,20.09
2019-03-31T08:29:20.360Z,20.09
2019-03-31T08:31:47.288Z,20.03
2019-03-31T08:34:14.187Z,20.03
2019-03-31T08:36:41.192Z,19.98
2019-03-31T08:39:08.186Z,19.93
2019-03-31T08:41:35.113Z,18.33
2019-03-31T08:44:02.049Z,18.73
2019-03-31T08:46:28.984Z,18.37
2019-03-31T08:48:55.887Z,18.20
2019-03-31T08:51:22.800Z,18.25
2019-03-31T08:53:49.715Z,18.27
2019-03-31T08:56:16.731Z,18.25
2019-03-31T08:58:43.669Z,18.23
2019-03-31T09:01:14.871Z,18.21
2019-03-31T09:03:41.780Z,18.28
2019-03-31T09:06:08.687Z,18.31
2019-03-31T09:08:35.689Z,18.38
2019-03-31T09:11:02.640Z,17.10
2019-03-31T09:13:29.548Z,18.31
2019-03-31T09:15:56.460Z,18.42
2019-03-31T09:18:23.368Z,18.38
2019-03-31T09:20:50.280Z,18.37
2019-03-31T09:23:17.216Z,18.42
2019-03-31T09:25:47.377Z,18.52
2019-03-31T09:28:12.681Z,18.66
2019-03-31T09:30:39.592Z,18.62
2019-03-31T09:33:06.504Z,18.61
2019-03-31T09:35:33.440Z,18.79
2019-03-31T09:38:00.349Z,19.11
2019-03-31T09:40:27.256Z,18.92
2019-03-31T09:42:54.253Z,19.40
2019-03-31T09:45:21.160Z,19.47
2019-03-31T09:47:48.076Z,19.52
2019-03-31T09:50:17.299Z,19.56
2019-03-31T09:52:43.583Z,19.57
2019-03-31T09:55:10.481Z,19.58
2019-03-31T09:57:37.392Z,19.59
2019-03-31T10:00:04.449Z,19.62
2019-03-31T10:02:31.312Z,19.63
2019-03-31T10:04:58.247Z,19.67
2019-03-31T10:07:25.229Z,19.72
2019-03-31T10:09:52.163Z,19.77
2019-03-31T10:12:19.096Z,19.79
2019-03-31T10:14:46.006Z,19.78
2019-03-31T10:17:12.911Z,19.76
2019-03-31T10:19:39.824Z,19.74
2019-03-31T10:22:06.804Z,19.73
2019-03-31T10:24:33.715Z,19.76
2019-03-31T10:27:00.624Z,19.81
2019-03-31T10:29:27.532Z,19.81
2019-03-31T10:31:54.464Z,19.80
2019-03-31T10:34:21.371Z,19.79
2019-03-31T10:36:48.280Z,19.78
2019-03-31T10:39:15.305Z,19.78
2019-03-31T10:41:42.233Z,19.77
2019-03-31T10:44:09.173Z,19.78
2019-03-31T10:46:36.078Z,19.80
2019-03-31T10:49:02.983Z,19.80
2019-03-31T10:51:29.973Z,19.79
2019-03-31T10:53:56.912Z,19.79
2019-03-31T10:56:23.821Z,19.79
2019-03-31T10:58:50.862Z,19.80
2019-03-31T11:01:17.841Z,19.81
2019-03-31T11:03:44.753Z,19.80
2019-03-31T11:06:11.668Z,19.82
2019-03-31T11:08:38.581Z,19.81
2019-03-31T11:11:05.588Z,19.83
2019-03-31T11:13:32.500Z,19.83
2019-03-31T11:15:59.408Z,19.84
2019-03-31T11:18:26.316Z,19.84
2019-03-31T11:20:53.232Z,19.84
2019-03-31T11:23:21.784Z,19.85
2019-03-31T11:25:48.695Z,19.84
2019-03-31T11:28:15.599Z,19.85
2019-03-31T11:30:42.620Z,19.85
2019-03-31T11:33:09.544Z,19.85
2019-03-31T11:35:36.448Z,19.85
2019-03-31T11:38:03.364Z,19.85
2019-03-31T11:40:30.272Z,19.86
2019-03-31T11:42:57.235Z,19.87
2019-03-31T11:45:24.148Z,19.86
2019-03-31T11:47:51.065Z,19.87
2019-03-31T11:50:18.069Z,19.87
2019-03-31T11:52:44.971Z,19.89
2019-03-31T11:55:11.909Z,19.89
2019-03-31T11:57:38.817Z,19.88
2019-03-31T12:00:05.822Z,19.89
2019-03-31T12:02:32.734Z,19.89
2019-03-31T12:04:59.634Z,19.89
2019-03-31T12:07:28.081Z,19.89
2019-03-31T12:09:55.102Z,19.90
2019-03-31T12:12:22.045Z,19.89
2019-03-31T12:14:59.888Z,19.89
2019-03-31T12:17:17.509Z,19.90
2019-03-31T12:19:44.419Z,19.91
2019-03-31T12:22:11.311Z,19.91
2019-03-31T12:24:38.257Z,19.91
2019-03-31T12:27:05.178Z,19.91
2019-03-31T12:29:32.083Z,19.90
2019-03-31T12:31:58.991Z,19.93
2019-03-31T12:34:25.909Z,19.95
2019-03-31T12:36:52.888Z,19.85
2019-03-31T12:39:19.745Z,19.80
2019-03-31T12:41:46.656Z,19.78
2019-03-31T12:44:13.599Z,19.78
2019-03-31T12:46:40.527Z,19.76
2019-03-31T12:49:07.449Z,19.76
2019-03-31T12:51:34.361Z,19.77
2019-03-31T12:54:01.264Z,19.77
2019-03-31T12:56:28.181Z,19.77
2019-03-31T12:58:55.108Z,19.77
2019-03-31T13:01:22.011Z,19.76
2019-03-31T13:03:48.932Z,19.77
2019-03-31T13:06:15.845Z,19.76
2019-03-31T13:08:42.753Z,19.76
2019-03-31T13:11:09.683Z,19.76
2019-03-31T13:13:36.598Z,19.76
2019-03-31T13:16:03.495Z,19.80
2019-03-31T13:18:30.413Z,19.85
2019-03-31T13:20:57.420Z,19.93
2019-03-31T13:23:24.345Z,19.97
2019-03-31T13:25:51.241Z,20.00
2019-03-31T13:28:18.186Z,19.99
2019-03-31T13:30:45.096Z,19.99
2019-03-31T13:33:12.019Z,19.98
2019-03-31T13:35:38.933Z,19.98
2019-03-31T13:38:11.369Z,19.99
2019-03-31T13:40:34.386Z,19.99
2019-03-31T13:43:01.305Z,19.98
2019-03-31T13:45:28.246Z,20.00
2019-03-31T13:47:58.457Z,19.99
2019-03-31T13:50:23.724Z,20.00
2019-03-31T13:52:50.672Z,20.01
2019-03-31T13:55:17.571Z,20.00
2019-03-31T13:57:45.189Z,20.01
2019-03-31T14:00:13.066Z,20.03
2019-03-31T14:02:39.991Z,20.05
2019-03-31T14:05:06.979Z,20.04
2019-03-31T14:07:33.936Z,20.04
2019-03-31T14:10:00.907Z,20.05
2019-03-31T14:12:27.854Z,20.06
2019-03-31T14:14:54.838Z,20.06
2019-03-31T14:17:24.423Z,20.07
2019-03-31T14:19:50.394Z,20.07
2019-03-31T14:22:17.348Z,20.07
2019-03-31T14:24:44.284Z,20.08
2019-03-31T14:27:11.268Z,20.07
2019-03-31T14:29:38.181Z,20.08
2019-03-31T14:32:05.112Z,20.07
2019-03-31T14:34:32.042Z,20.08
2019-03-31T14:36:58.995Z,20.08
2019-03-31T14:39:25.884Z,20.10
2019-03-31T14:41:52.845Z,20.09
2019-03-31T14:44:19.841Z,20.09
2019-03-31T14:46:46.758Z,20.09
2019-03-31T14:49:13.699Z,20.10
2019-03-31T14:51:40.729Z,20.10
2019-03-31T14:54:07.777Z,20.11
2019-03-31T14:56:34.766Z,20.10
2019-03-31T14:59:01.678Z,20.10
2019-03-31T15:01:28.626Z,20.11
2019-03-31T15:03:55.536Z,20.12
2019-03-31T15:06:22.461Z,20.11
2019-03-31T15:08:54.458Z,20.12
2019-03-31T15:11:17.972Z,20.12
2019-03-31T15:13:44.880Z,20.11
2019-03-31T15:16:11.802Z,20.12
2019-03-31T15:18:38.717Z,20.14
2019-03-31T15:21:05.627Z,20.13
2019-03-31T15:23:32.540Z,20.11
2019-03-31T15:25:59.445Z,19.68
2019-03-31T15:28:26.382Z,20.12
2019-03-31T15:30:53.308Z,20.12
2019-03-31T15:33:20.200Z,20.12
2019-03-31T15:35:47.108Z,20.12
2019-03-31T15:38:14.038Z,20.11
2019-03-31T15:40:40.941Z,20.11
2019-03-31T15:43:07.867Z,20.11
2019-03-31T15:45:34.940Z,20.10
2019-03-31T15:48:01.848Z,20.11
2019-03-31T15:50:28.756Z,20.10
2019-03-31T15:52:55.704Z,20.11
2019-03-31T15:55:22.627Z,20.11
2019-03-31T15:57:49.548Z,20.11
2019-03-31T16:00:16.464Z,20.10
2019-03-31T16:02:43.389Z,20.10
2019-03-31T16:05:12.686Z,20.09
2019-03-31T16:07:39.007Z,20.10
2019-03-31T16:10:05.936Z,20.10
2019-03-31T16:12:32.846Z,20.10
2019-03-31T16:14:59.763Z,20.11
2019-03-31T16:17:26.773Z,20.11
2019-03-31T16:19:53.676Z,20.11
2019-03-31T16:22:20.594Z,20.11
2019-03-31T16:24:49.144Z,20.11
2019-03-31T16:27:16.093Z,20.12
2019-03-31T16:29:43.004Z,20.12
2019-03-31T16:32:09.916Z,20.12
2019-03-31T16:34:36.828Z,20.11
2019-03-31T16:37:03.763Z,20.11
2019-03-31T16:39:37.611Z,20.11
2019-03-31T16:41:59.240Z,20.12
2019-03-31T16:44:26.145Z,20.12
2019-03-31T16:46:53.054Z,20.11
2019-03-31T16:49:19.984Z,20.12
2019-03-31T16:51:46.892Z,20.12
2019-03-31T16:54:13.844Z,20.12
2019-03-31T16:56:40.810Z,20.13
2019-03-31T16:59:07.732Z,20.16
2019-03-31T17:01:34.667Z,20.18
2019-03-31T17:04:01.591Z,20.15
2019-03-31T17:06:28.503Z,20.14
2019-03-31T17:08:55.407Z,20.12
2019-03-31T17:11:22.325Z,20.12
2019-03-31T17:13:49.249Z,20.11
2019-03-31T17:16:16.155Z,20.11
2019-03-31T17:18:43.109Z,20.10
2019-03-31T17:21:10.130Z,20.11
2019-03-31T17:23:37.047Z,19.72
2019-03-31T17:26:04.044Z,20.10
2019-03-31T17:28:30.996Z,20.10
2019-03-31T17:30:57.999Z,20.10
2019-03-31T17:33:24.944Z,20.09
2019-03-31T17:35:51.967Z,20.09
2019-03-31T17:38:18.886Z,20.09
2019-03-31T17:40:45.800Z,20.10
2019-03-31T17:43:12.802Z,20.15
2019-03-31T17:45:39.848Z,20.17
2019-03-31T17:48:06.752Z,20.18
2019-03-31T17:50:33.681Z,20.24
2019-03-31T17:53:03.685Z,20.22
2019-03-31T17:55:29.144Z,20.20
2019-03-31T17:57:56.093Z,20.18
2019-03-31T18:00:23.075Z,20.17
2019-03-31T18:02:49.970Z,20.16
2019-03-31T18:05:17.008Z,20.19
2019-03-31T18:07:43.932Z,20.17
2019-03-31T18:10:20.925Z,20.15
2019-03-31T18:12:39.421Z,20.12
2019-03-31T18:15:06.462Z,20.11
2019-03-31T18:17:33.378Z,20.13
2019-03-31T18:20:00.354Z,19.71
2019-03-31T18:22:27.297Z,20.08
2019-03-31T18:24:54.523Z,20.06
2019-03-31T18:27:21.373Z,20.05
2019-03-31T18:29:48.289Z,20.07
2019-03-31T18:32:15.247Z,20.06
2019-03-31T18:34:42.183Z,20.06
2019-03-31T18:37:09.101Z,20.06
2019-03-31T18:39:36.065Z,20.07
2019-03-31T18:42:02.972Z,20.05
2019-03-31T18:44:29.872Z,20.03
2019-03-31T18:46:56.793Z,20.03
2019-03-31T18:49:23.738Z,20.02
2019-03-31T18:51:50.725Z,20.01
2019-03-31T18:54:35.517Z,20.02
2019-03-31T18:57:04.059Z,20.01
2019-03-31T18:59:41.666Z,20.00
2019-03-31T19:02:26.488Z,20.01
2019-03-31T19:04:55.054Z,20.01
2019-03-31T19:07:41.883Z,20.02
2019-03-31T19:10:25.815Z,20.00
2019-03-31T19:13:03.031Z,20.00
2019-03-31T19:15:31.751Z,20.00
2019-03-31T19:18:00.413Z,20.00
2019-03-31T19:20:32.021Z,20.01
2019-03-31T19:23:17.206Z,20.01
2019-03-31T19:25:51.977Z,19.96
2019-03-31T19:28:20.578Z,20.01
2019-03-31T19:30:52.105Z,20.11
2019-03-31T19:33:26.595Z,20.14
2019-03-31T19:36:04.341Z,20.12
2019-03-31T19:38:32.909Z,20.15
2019-03-31T19:41:04.366Z,20.15
2019-03-31T19:43:48.050Z,20.15
2019-03-31T19:46:22.417Z,20.15
2019-03-31T19:49:03.035Z,20.15
2019-03-31T19:51:48.065Z,20.15
2019-03-31T19:54:32.900Z,20.15
2019-03-31T19:57:17.772Z,20.16
2019-03-31T19:59:46.419Z,20.16
2019-03-31T20:02:15.039Z,20.16
2019-03-31T20:05:00.241Z,20.17
2019-03-31T20:07:44.235Z,20.17
2019-03-31T20:10:15.510Z,20.16
2019-03-31T20:13:00.335Z,20.16
2019-03-31T20:15:38.097Z,20.16
2019-03-31T20:18:24.893Z,20.17
2019-03-31T20:20:53.469Z,20.17
2019-03-31T20:23:35.057Z,20.17
2019-03-31T20:26:06.389Z,20.17
2019-03-31T20:28:35.029Z,20.17
2019-03-31T20:31:06.504Z,20.17
2019-03-31T20:33:38.225Z,20.18
2019-03-31T20:36:06.789Z,20.18
2019-03-31T20:38:41.409Z,20.18
2019-03-31T20:41:18.178Z,20.18
2019-03-31T20:43:57.641Z,20.18
2019-03-31T20:46:24.568Z,20.18
2019-03-31T20:48:51.500Z,20.18
2019-03-31T20:51:18.445Z,20.19
2019-03-31T20:53:45.360Z,20.19
2019-03-31T20:56:12.298Z,20.19
2019-03-31T20:58:39.317Z,20.20
2019-03-31T21:01:09.843Z,20.20
2019-03-31T21:03:34.808Z,20.19
2019-03-31T21:06:01.914Z,20.19
2019-03-31T21:08:28.852Z,20.20
2019-03-31T21:10:55.769Z,20.20
2019-03-31T21:13:22.694Z,20.19
2019-03-31T21:15:49.639Z,20.20
2019-03-31T21:18:16.559Z,20.19
2019-03-31T21:20:43.496Z,20.20
2019-03-31T21:23:10.459Z,20.20
2019-03-31T21:25:37.419Z,20.20
2019-03-31T21:28:04.347Z,20.20
2019-03-31T21:30:31.266Z,20.20
2019-03-31T21:32:58.184Z,20.19
2019-03-31T21:35:25.164Z,20.20
2019-03-31T21:37:52.089Z,20.20
2019-03-31T21:40:18.996Z,20.20
2019-03-31T21:42:45.932Z,20.20
2019-03-31T21:45:12.852Z,20.21
2019-03-31T21:47:39.778Z,20.21
2019-03-31T21:50:06.668Z,20.21
2019-03-31T21:52:33.603Z,20.21
2019-03-31T21:55:00.604Z,20.20
2019-03-31T21:57:27.583Z,20.21
2019-03-31T21:59:54.531Z,20.21
2019-03-31T22:02:21.512Z,20.21
2019-03-31T22:04:48.479Z,20.22
2019-03-31T22:07:15.400Z,20.21
2019-03-31T22:09:42.512Z,20.21
2019-03-31T22:12:09.471Z,20.21
2019-03-31T22:14:36.454Z,20.21
2019-03-31T22:17:03.400Z,20.22
2019-03-31T22:19:30.315Z,20.21
2019-03-31T22:21:57.249Z,20.22
2019-03-31T22:24:24.277Z,20.21
2019-03-31T22:26:51.205Z,20.21
2019-03-31T22:29:18.118Z,20.21
2019-03-31T22:31:45.032Z,20.22
2019-03-31T22:34:11.946Z,20.21
2019-03-31T22:36:38.859Z,20.22
2019-03-31T22:39:05.785Z,20.22
2019-03-31T22:41:32.725Z,20.22
2019-03-31T22:43:59.667Z,20.21
2019-03-31T22:46:26.578Z,20.22
2019-03-31T22:48:53.626Z,20.22
2019-03-31T22:51:20.552Z,20.22
2019-03-31T22:53:47.493Z,20.21
2019-03-31T22:56:14.437Z,20.22
2019-03-31T22:58:41.362Z,20.22
2019-03-31T23:01:08.287Z,20.21
2019-03-31T23:03:35.209Z,20.23
2019-03-31T23:06:02.219Z,20.22
2019-03-31T23:08:31.508Z,20.21
2019-03-31T23:10:58.461Z,20.23
2019-03-31T23:13:25.404Z,20.22
2019-03-31T23:15:52.350Z,20.21
2019-03-31T23:18:19.254Z,20.22
2019-03-31T23:20:46.309Z,20.21
2019-03-31T23:23:13.226Z,20.21
2019-03-31T23:25:40.171Z,20.22
2019-03-31T23:28:07.221Z,20.22
2019-03-31T23:30:34.131Z,20.22
2019-03-31T23:33:01.083Z,20.23
2019-03-31T23:35:28.029Z,20.21
2019-03-31T23:37:54.982Z,20.22
2019-03-31T23:40:21.925Z,20.22
2019-03-31T23:42:48.849Z,20.22
2019-03-31T23:45:15.837Z,20.21
2019-03-31T23:47:42.733Z,20.22
2019-03-31T23:50:09.654Z,20.22
2019-03-31T23:52:36.571Z,20.22
2019-03-31T23:55:03.491Z,20.22
2019-03-31T23:57:40.003Z,20.21
